createdAt,value
2018-12-14T00:00:38.743Z,3.03
2018-12-14T00:01:38.728Z,2.97
2018-12-14T00:02:38.710Z,2.97
2018-12-14T00:03:38.694Z,2.89
2018-12-14T00:04:38.684Z,2.93
2018-12-14T00:05:38.666Z,3.03
2018-12-14T00:06:38.650Z,3.08
2018-12-14T00:07:38.633Z,3.06
2018-12-14T00:08:38.625Z,3.15
2018-12-14T00:09:38.602Z,3.13
2018-12-14T00:10:38.585Z,3.08
2018-12-14T00:11:38.573Z,3.11
2018-12-14T00:12:38.554Z,3.17
2018-12-14T00:13:38.548Z,3.11
2018-12-14T00:14:38.602Z,3.17
2018-12-14T00:15:38.510Z,3.13
2018-12-14T00:16:38.500Z,3.08
2018-12-14T00:17:38.485Z,3.14
2018-12-14T00:18:38.462Z,3.13
2018-12-14T00:19:38.445Z,3.23
2018-12-14T00:20:38.430Z,3.17
2018-12-14T00:21:38.415Z,3.2
2018-12-14T00:22:38.403Z,3.2
2018-12-14T00:23:38.388Z,3.15
2018-12-14T00:24:38.371Z,3.23
2018-12-14T00:25:38.353Z,3.23
2018-12-14T00:26:38.596Z,3.2
2018-12-14T00:27:38.325Z,3.05
2018-12-14T00:28:38.311Z,3.11
2018-12-14T00:29:38.349Z,3.06
2018-12-14T00:30:38.288Z,3.11
2018-12-14T00:31:38.269Z,3.17
2018-12-14T00:32:38.245Z,3.11
2018-12-14T00:33:38.284Z,3.14
2018-12-14T00:34:38.211Z,3.06
2018-12-14T00:35:38.199Z,3.05
2018-12-14T00:36:38.182Z,3.2
2018-12-14T00:37:38.227Z,3.08
2018-12-14T00:38:38.150Z,3.1
2018-12-14T00:39:38.137Z,3.11
2018-12-14T00:40:38.121Z,3.11
2018-12-14T00:41:38.105Z,3.13
2018-12-14T00:42:38.117Z,3.13
2018-12-14T00:43:38.076Z,3.05
2018-12-14T00:44:38.056Z,3.03
2018-12-14T00:45:38.039Z,3.06
2018-12-14T00:46:38.028Z,2.96
2018-12-14T00:47:38.026Z,3.06
2018-12-14T00:48:37.999Z,2.95
2018-12-14T00:49:37.978Z,2.97
2018-12-14T00:50:37.963Z,2.97
2018-12-14T00:51:37.949Z,2.96
2018-12-14T00:52:37.932Z,2.99
2018-12-14T00:53:37.915Z,2.92
2018-12-14T00:54:37.908Z,3.02
2018-12-14T00:55:37.885Z,3.03
2018-12-14T00:56:37.874Z,3.08
2018-12-14T00:57:38.103Z,3.02
2018-12-14T00:58:37.839Z,3.15
2018-12-14T00:59:37.822Z,3.1
2018-12-14T01:00:37.808Z,3.11
2018-12-14T01:01:37.798Z,3.14
2018-12-14T01:02:37.774Z,3.13
2018-12-14T01:03:37.764Z,3.13
2018-12-14T01:04:37.749Z,3.14
2018-12-14T01:05:37.731Z,3.1
2018-12-14T01:06:37.711Z,3.03
2018-12-14T01:07:37.704Z,2.97
2018-12-14T01:08:37.683Z,3.02
2018-12-14T01:09:37.673Z,3.03
2018-12-14T01:10:37.650Z,2.97
2018-12-14T01:11:37.680Z,2.93
2018-12-14T01:12:37.624Z,2.95
2018-12-14T01:13:37.627Z,2.89
2018-12-14T01:14:37.597Z,2.82
2018-12-14T01:15:37.572Z,2.79
2018-12-14T01:16:37.556Z,2.79
2018-12-14T01:17:37.540Z,2.82
2018-12-14T01:18:37.526Z,2.78
2018-12-14T01:19:37.510Z,2.69
2018-12-14T01:20:37.496Z,2.66
2018-12-14T01:21:37.513Z,2.75
2018-12-14T01:22:37.221Z,2.67
2018-12-14T01:23:37.449Z,2.71
2018-12-14T01:24:37.436Z,2.66
2018-12-14T01:25:37.416Z,2.59
2018-12-14T01:26:37.399Z,2.56
2018-12-14T01:27:37.383Z,2.59
2018-12-14T01:28:37.615Z,2.59
2018-12-14T01:29:37.351Z,2.6
2018-12-14T01:30:37.340Z,2.56
2018-12-14T01:31:37.322Z,2.61
2018-12-14T01:32:37.304Z,2.63
2018-12-14T01:33:37.288Z,2.57
2018-12-14T01:34:37.273Z,2.57
2018-12-14T01:35:37.258Z,2.46
2018-12-14T01:36:37.240Z,2.46
2018-12-14T01:37:37.228Z,2.48
2018-12-14T01:38:37.207Z,2.52
2018-12-14T01:39:37.197Z,2.43
2018-12-14T01:40:37.185Z,2.45
2018-12-14T01:41:37.175Z,2.42
2018-12-14T01:42:37.144Z,2.52
2018-12-14T01:43:37.130Z,2.49
2018-12-14T01:44:37.179Z,2.46
2018-12-14T01:45:37.097Z,2.38
2018-12-14T01:46:37.086Z,2.38
2018-12-14T01:47:37.131Z,2.36
2018-12-14T01:48:37.051Z,2.38
2018-12-14T01:49:37.039Z,2.38
2018-12-14T01:50:37.018Z,2.41
2018-12-14T01:51:36.998Z,2.31
2018-12-14T01:52:36.985Z,2.36
2018-12-14T01:53:36.967Z,2.31
2018-12-14T01:54:36.955Z,2.39
2018-12-14T01:55:36.940Z,2.39
2018-12-14T01:56:36.919Z,2.21
2018-12-14T01:57:36.903Z,2.28
2018-12-14T01:58:36.892Z,2.27
2018-12-14T01:59:36.876Z,2.2
2018-12-14T02:00:36.857Z,2.17
2018-12-14T02:01:36.840Z,2.24
2018-12-14T02:02:36.826Z,2.25
2018-12-14T02:03:36.808Z,2.2
2018-12-14T02:04:37.298Z,2.21
2018-12-14T02:05:36.782Z,2.18
2018-12-14T02:06:36.762Z,2.23
2018-12-14T02:07:36.744Z,2.23
2018-12-14T02:08:36.730Z,2.07
2018-12-14T02:09:36.709Z,2.12
2018-12-14T02:10:36.695Z,2.1
2018-12-14T02:11:36.676Z,2.16
2018-12-14T02:12:36.671Z,2.06
2018-12-14T02:13:36.646Z,2.16
2018-12-14T02:14:36.633Z,2.09
2018-12-14T02:15:36.615Z,2.09
2018-12-14T02:16:36.599Z,2.1
2018-12-14T02:17:36.347Z,2.14
2018-12-14T02:18:36.570Z,2.16
2018-12-14T02:19:36.551Z,2.09
2018-12-14T02:20:36.532Z,2.09
2018-12-14T02:21:36.518Z,2.05
2018-12-14T02:22:36.500Z,2.14
2018-12-14T02:23:36.488Z,2.06
2018-12-14T02:24:36.470Z,2.07
2018-12-14T02:25:36.455Z,2.06
2018-12-14T02:26:36.436Z,2.03
2018-12-14T02:27:36.420Z,2.06
2018-12-14T02:28:36.407Z,2.07
2018-12-14T02:29:36.390Z,2
2018-12-14T02:30:36.372Z,2.02
2018-12-14T02:31:36.362Z,1.95
2018-12-14T02:32:36.343Z,1.95
2018-12-14T02:33:36.347Z,1.93
2018-12-14T02:34:36.318Z,1.91
2018-12-14T02:35:36.293Z,1.87
2018-12-14T02:36:36.279Z,1.91
2018-12-14T02:37:36.255Z,1.93
2018-12-14T02:38:36.252Z,1.95
2018-12-14T02:39:36.332Z,1.9
2018-12-14T02:40:36.225Z,1.87
2018-12-14T02:41:36.202Z,1.98
2018-12-14T02:42:36.180Z,1.95
2018-12-14T02:43:36.168Z,1.86
2018-12-14T02:44:36.154Z,1.84
2018-12-14T02:45:36.132Z,1.77
2018-12-14T02:46:36.112Z,1.81
2018-12-14T02:47:36.099Z,1.77
2018-12-14T02:48:36.078Z,1.79
2018-12-14T02:49:36.069Z,1.8
2018-12-14T02:50:36.053Z,1.76
2018-12-14T02:51:36.032Z,1.62
2018-12-14T02:52:36.015Z,1.62
2018-12-14T02:53:36.001Z,1.58
2018-12-14T02:54:36.013Z,1.47
2018-12-14T02:55:35.975Z,1.51
2018-12-14T02:56:35.952Z,1.51
2018-12-14T02:57:35.947Z,1.47
2018-12-14T02:58:35.918Z,1.42
2018-12-14T02:59:35.901Z,1.4
2018-12-14T03:00:35.883Z,1.36
2018-12-14T03:01:35.869Z,1.36
2018-12-14T03:02:36.118Z,1.36
2018-12-14T03:03:35.835Z,1.27
2018-12-14T03:04:35.828Z,1.26
2018-12-14T03:05:35.801Z,1.23
2018-12-14T03:06:35.783Z,1.22
2018-12-14T03:07:35.768Z,1.14
2018-12-14T03:08:35.766Z,1.16
2018-12-14T03:09:35.731Z,1.09
2018-12-14T03:10:35.723Z,1
2018-12-14T03:11:35.704Z,1.11
2018-12-14T03:12:35.987Z,1.06
2018-12-14T03:13:35.686Z,1
2018-12-14T03:14:35.711Z,1.04
2018-12-14T03:15:35.635Z,0.97
2018-12-14T03:16:35.620Z,0.98
2018-12-14T03:17:35.601Z,0.96
2018-12-14T03:18:35.586Z,0.86
2018-12-14T03:19:35.574Z,0.84
2018-12-14T03:20:35.546Z,0.78
2018-12-14T03:21:35.537Z,0.84
2018-12-14T03:22:35.522Z,0.8
2018-12-14T03:23:35.503Z,0.86
2018-12-14T03:24:35.484Z,0.79
2018-12-14T03:25:35.464Z,0.83
2018-12-14T03:26:35.453Z,0.84
2018-12-14T03:27:35.428Z,0.75
2018-12-14T03:28:35.416Z,0.76
2018-12-14T03:29:35.395Z,0.8
2018-12-14T03:30:35.391Z,0.75
2018-12-14T03:31:35.381Z,0.69
2018-12-14T03:32:35.368Z,0.73
2018-12-14T03:33:35.343Z,0.66
2018-12-14T03:34:35.310Z,0.55
2018-12-14T03:35:35.291Z,0.58
2018-12-14T03:36:35.275Z,0.61
2018-12-14T03:37:35.259Z,0.5
2018-12-14T03:38:35.243Z,0.58
2018-12-14T03:39:35.224Z,0.39
2018-12-14T03:40:35.213Z,0.46
2018-12-14T03:41:35.195Z,0.47
2018-12-14T03:42:39.397Z,0.5
2018-12-14T03:43:35.160Z,0.49
2018-12-14T03:44:35.146Z,0.44
2018-12-14T03:45:35.123Z,0.5
2018-12-14T03:46:34.884Z,0.42
2018-12-14T03:47:35.088Z,0.42
2018-12-14T03:48:35.076Z,0.47
2018-12-14T03:49:35.056Z,0.42
2018-12-14T03:50:35.036Z,0.35
2018-12-14T03:51:35.019Z,0.44
2018-12-14T03:52:35.000Z,0.49
2018-12-14T03:53:34.988Z,0.46
2018-12-14T03:54:34.964Z,0.5
2018-12-14T03:55:34.955Z,0.5
2018-12-14T03:56:34.933Z,0.5
2018-12-14T03:57:34.918Z,0.44
2018-12-14T03:58:34.904Z,0.53
2018-12-14T03:59:34.928Z,0.47
2018-12-14T04:00:34.866Z,0.53
2018-12-14T04:01:34.845Z,0.5
2018-12-14T04:02:34.832Z,0.6
2018-12-14T04:03:34.812Z,0.62
2018-12-14T04:04:35.047Z,0.5
2018-12-14T04:05:34.784Z,0.46
2018-12-14T04:06:34.761Z,0.5
2018-12-14T04:07:34.756Z,0.53
2018-12-14T04:08:34.730Z,0.51
2018-12-14T04:09:34.741Z,0.55
2018-12-14T04:10:34.700Z,0.47
2018-12-14T04:11:34.677Z,0.5
2018-12-14T04:12:41.203Z,0.6
2018-12-14T04:13:34.640Z,0.49
2018-12-14T04:14:34.634Z,0.49
2018-12-14T04:15:34.606Z,0.49
2018-12-14T04:16:34.598Z,0.6
2018-12-14T04:17:34.569Z,0.62
2018-12-14T04:18:34.552Z,0.57
2018-12-14T04:19:34.536Z,0.6
2018-12-14T04:20:34.526Z,0.55
2018-12-14T04:21:34.499Z,0.62
2018-12-14T04:22:34.481Z,0.62
2018-12-14T04:23:34.468Z,0.6
2018-12-14T04:24:34.448Z,0.66
2018-12-14T04:25:34.438Z,0.72
2018-12-14T04:26:34.418Z,0.76
2018-12-14T04:27:34.401Z,0.69
2018-12-14T04:28:34.378Z,0.78
2018-12-14T04:29:34.371Z,0.78
2018-12-14T04:30:34.347Z,0.79
2018-12-14T04:31:34.331Z,0.79
2018-12-14T04:32:34.322Z,0.79
2018-12-14T04:33:34.295Z,0.79
2018-12-14T04:34:34.280Z,0.87
2018-12-14T04:35:34.268Z,0.9
2018-12-14T04:36:34.255Z,0.83
2018-12-14T04:37:34.224Z,0.84
2018-12-14T04:38:34.214Z,0.9
2018-12-14T04:39:36.034Z,0.96
2018-12-14T04:40:34.173Z,0.98
2018-12-14T04:41:34.179Z,1.05
2018-12-14T04:42:34.142Z,1.02
2018-12-14T04:43:34.123Z,1.14
2018-12-14T04:44:34.110Z,1.15
2018-12-14T04:45:34.089Z,1.14
2018-12-14T04:46:34.071Z,1.12
2018-12-14T04:47:34.060Z,1.18
2018-12-14T04:48:34.043Z,1.23
2018-12-14T04:49:34.022Z,1.29
2018-12-14T04:50:34.003Z,1.23
2018-12-14T04:51:33.989Z,1.26
2018-12-14T04:52:33.988Z,1.32
2018-12-14T04:53:33.950Z,1.29
2018-12-14T04:54:33.939Z,1.4
2018-12-14T04:55:33.918Z,1.33
2018-12-14T04:56:33.933Z,1.4
2018-12-14T04:57:33.917Z,1.42
2018-12-14T04:58:33.870Z,1.44
2018-12-14T04:59:33.855Z,1.48
2018-12-14T05:00:33.837Z,1.44
2018-12-14T05:01:33.818Z,1.42
2018-12-14T05:02:33.805Z,1.47
2018-12-14T05:03:33.797Z,1.52
2018-12-14T05:04:33.768Z,1.54
2018-12-14T05:05:33.510Z,1.59
2018-12-14T05:06:34.050Z,1.72
2018-12-14T05:07:33.716Z,1.73
2018-12-14T05:08:33.706Z,1.7
2018-12-14T05:09:33.684Z,1.77
2018-12-14T05:10:33.673Z,1.8
2018-12-14T05:11:33.652Z,1.81
2018-12-14T05:12:33.636Z,1.77
2018-12-14T05:13:33.622Z,1.8
2018-12-14T05:14:33.609Z,1.76
2018-12-14T05:15:33.352Z,1.81
2018-12-14T05:16:33.571Z,1.98
2018-12-14T05:17:33.554Z,1.93
2018-12-14T05:18:33.534Z,1.98
2018-12-14T05:19:33.520Z,1.98
2018-12-14T05:20:33.503Z,1.93
2018-12-14T05:21:33.487Z,1.9
2018-12-14T05:22:33.470Z,1.93
2018-12-14T05:23:33.459Z,1.93
2018-12-14T05:24:33.440Z,1.95
2018-12-14T05:25:33.421Z,1.91
2018-12-14T05:26:33.804Z,2
2018-12-14T05:27:33.391Z,2.09
2018-12-14T05:28:33.129Z,2.05
2018-12-14T05:29:33.357Z,2.14
2018-12-14T05:30:33.339Z,2.06
2018-12-14T05:31:33.324Z,2.06
2018-12-14T05:32:33.303Z,2.1
2018-12-14T05:33:33.292Z,2.14
2018-12-14T05:34:33.278Z,2.05
2018-12-14T05:35:33.260Z,2.14
2018-12-14T05:36:33.242Z,2.1
2018-12-14T05:37:33.231Z,2.23
2018-12-14T05:38:33.207Z,2.21
2018-12-14T05:39:33.194Z,2.25
2018-12-14T05:40:33.175Z,2.21
2018-12-14T05:41:33.773Z,2.24
2018-12-14T05:42:33.144Z,2.23
2018-12-14T05:43:33.131Z,2.25
2018-12-14T05:44:33.112Z,2.27
2018-12-14T05:45:33.098Z,2.23
2018-12-14T05:46:34.062Z,2.34
2018-12-14T05:47:33.063Z,2.3
2018-12-14T05:48:33.048Z,2.38
2018-12-14T05:49:33.031Z,2.39
2018-12-14T05:50:33.022Z,2.41
2018-12-14T05:51:32.996Z,2.38
2018-12-14T05:52:32.985Z,2.45
2018-12-14T05:53:32.966Z,2.34
2018-12-14T05:54:32.948Z,2.41
2018-12-14T05:55:32.935Z,2.42
2018-12-14T05:56:32.917Z,2.42
2018-12-14T05:57:32.910Z,2.41
2018-12-14T05:58:32.886Z,2.42
2018-12-14T05:59:32.871Z,2.38
2018-12-14T06:00:32.858Z,2.46
2018-12-14T06:01:32.838Z,2.54
2018-12-14T06:02:32.823Z,2.48
2018-12-14T06:03:32.803Z,2.39
2018-12-14T06:04:32.793Z,2.54
2018-12-14T06:05:32.778Z,2.39
2018-12-14T06:06:32.771Z,2.48
2018-12-14T06:07:32.740Z,2.42
2018-12-14T06:08:32.723Z,2.52
2018-12-14T06:09:32.959Z,2.41
2018-12-14T06:10:32.694Z,2.53
2018-12-14T06:11:32.675Z,2.43
2018-12-14T06:12:32.660Z,2.35
2018-12-14T06:13:32.645Z,2.38
2018-12-14T06:14:32.627Z,2.45
2018-12-14T06:15:32.610Z,2.41
2018-12-14T06:16:32.596Z,2.43
2018-12-14T06:17:32.576Z,2.49
2018-12-14T06:18:32.563Z,2.39
2018-12-14T06:19:32.551Z,2.48
2018-12-14T06:20:32.530Z,2.41
2018-12-14T06:21:32.523Z,2.42
2018-12-14T06:22:32.565Z,2.48
2018-12-14T06:23:32.481Z,2.48
2018-12-14T06:24:32.473Z,2.41
2018-12-14T06:25:32.467Z,2.53
2018-12-14T06:26:32.434Z,2.52
2018-12-14T06:27:32.418Z,2.54
2018-12-14T06:28:32.403Z,2.43
2018-12-14T06:29:32.386Z,2.48
2018-12-14T06:30:32.368Z,2.43
2018-12-14T06:31:32.115Z,2.41
2018-12-14T06:32:32.337Z,2.42
2018-12-14T06:33:32.321Z,2.38
2018-12-14T06:34:32.304Z,2.39
2018-12-14T06:35:32.288Z,2.38
2018-12-14T06:36:32.275Z,2.42
2018-12-14T06:37:32.257Z,2.49
2018-12-14T06:38:32.241Z,2.45
2018-12-14T06:39:32.224Z,2.48
2018-12-14T06:40:32.456Z,2.48
2018-12-14T06:41:32.220Z,2.49
2018-12-14T06:42:32.178Z,2.49
2018-12-14T06:43:32.161Z,2.49
2018-12-14T06:44:32.156Z,2.61
2018-12-14T06:45:32.127Z,2.53
2018-12-14T06:46:32.117Z,2.61
2018-12-14T06:47:32.097Z,2.6
2018-12-14T06:48:32.076Z,2.56
2018-12-14T06:49:32.063Z,2.54
2018-12-14T06:50:32.057Z,2.59
2018-12-14T06:51:32.032Z,2.56
2018-12-14T06:52:32.017Z,2.45
2018-12-14T06:53:32.005Z,2.56
2018-12-14T06:54:31.981Z,2.56
2018-12-14T06:55:31.966Z,2.6
2018-12-14T06:56:31.951Z,2.56
2018-12-14T06:57:31.945Z,2.53
2018-12-14T06:58:31.917Z,2.57
2018-12-14T06:59:31.902Z,2.56
2018-12-14T07:00:31.888Z,2.57
2018-12-14T07:01:31.871Z,2.6
2018-12-14T07:02:31.855Z,2.57
2018-12-14T07:03:31.838Z,2.59
2018-12-14T07:04:31.820Z,2.54
2018-12-14T07:05:31.814Z,2.54
2018-12-14T07:06:31.792Z,2.59
2018-12-14T07:07:31.783Z,2.59
2018-12-14T07:08:31.770Z,2.64
2018-12-14T07:09:31.746Z,2.66
2018-12-14T07:10:31.726Z,2.72
2018-12-14T07:11:31.710Z,2.71
2018-12-14T07:12:31.698Z,2.69
2018-12-14T07:13:31.678Z,2.77
2018-12-14T07:14:31.665Z,2.67
2018-12-14T07:15:31.644Z,2.57
2018-12-14T07:16:31.628Z,2.54
2018-12-14T07:17:31.611Z,2.54
2018-12-14T07:18:31.601Z,2.57
2018-12-14T07:19:31.583Z,2.53
2018-12-14T07:20:31.573Z,2.46
2018-12-14T07:21:31.550Z,2.52
2018-12-14T07:22:31.531Z,2.54
2018-12-14T07:23:31.514Z,2.56
2018-12-14T07:24:31.503Z,2.64
2018-12-14T07:25:31.490Z,2.63
2018-12-14T07:26:31.470Z,2.54
2018-12-14T07:27:31.221Z,2.74
2018-12-14T07:28:31.438Z,2.67
2018-12-14T07:29:31.424Z,2.71
2018-12-14T07:30:31.406Z,2.66
2018-12-14T07:31:31.390Z,2.61
2018-12-14T07:32:31.378Z,2.6
2018-12-14T07:33:31.373Z,2.6
2018-12-14T07:34:31.347Z,2.69
2018-12-14T07:35:31.328Z,2.71
2018-12-14T07:36:31.315Z,2.69
2018-12-14T07:37:31.291Z,2.74
2018-12-14T07:38:31.281Z,2.64
2018-12-14T07:39:31.265Z,2.67
2018-12-14T07:40:31.247Z,2.75
2018-12-14T07:41:31.229Z,2.71
2018-12-14T07:42:31.220Z,2.66
2018-12-14T07:43:33.277Z,2.77
2018-12-14T07:44:31.428Z,2.77
2018-12-14T07:45:31.170Z,2.69
2018-12-14T07:46:31.176Z,2.69
2018-12-14T07:47:31.138Z,2.67
2018-12-14T07:48:31.124Z,2.67
2018-12-14T07:49:31.106Z,2.69
2018-12-14T07:50:31.089Z,2.66
2018-12-14T07:51:31.075Z,2.6
2018-12-14T07:52:31.061Z,2.66
2018-12-14T07:53:31.046Z,2.57
2018-12-14T07:54:31.027Z,2.69
2018-12-14T07:55:31.009Z,2.69
2018-12-14T07:56:30.994Z,2.71
2018-12-14T07:57:30.980Z,2.72
2018-12-14T07:58:30.964Z,2.64
2018-12-14T07:59:30.950Z,2.69
2018-12-14T08:00:30.931Z,2.69
2018-12-14T08:01:30.913Z,2.67
2018-12-14T08:02:32.001Z,2.74
2018-12-14T08:03:30.883Z,2.71
2018-12-14T08:04:30.866Z,2.64
2018-12-14T08:05:30.853Z,2.69
2018-12-14T08:06:30.597Z,2.71
2018-12-14T08:07:30.821Z,2.74
2018-12-14T08:08:30.805Z,2.64
2018-12-14T08:09:30.789Z,2.69
2018-12-14T08:10:30.769Z,2.74
2018-12-14T08:11:30.756Z,2.67
2018-12-14T08:12:30.747Z,2.72
2018-12-14T08:13:36.860Z,2.66
2018-12-14T08:14:30.706Z,2.72
2018-12-14T08:15:30.692Z,2.66
2018-12-14T08:16:30.680Z,2.84
2018-12-14T08:17:30.665Z,2.78
2018-12-14T08:18:30.643Z,2.81
2018-12-14T08:19:30.635Z,2.81
2018-12-14T08:20:30.617Z,2.87
2018-12-14T08:21:30.595Z,2.84
2018-12-14T08:22:30.580Z,2.87
2018-12-14T08:23:30.565Z,2.92
2018-12-14T08:24:30.553Z,2.95
2018-12-14T08:25:30.558Z,2.96
2018-12-14T08:26:30.518Z,2.93
2018-12-14T08:27:30.501Z,2.87
2018-12-14T08:28:30.491Z,2.89
2018-12-14T08:29:30.475Z,2.9
2018-12-14T08:30:30.454Z,2.87
2018-12-14T08:31:30.443Z,2.96
2018-12-14T08:32:30.422Z,2.93
2018-12-14T08:33:30.411Z,2.95
2018-12-14T08:34:30.393Z,3.06
2018-12-14T08:35:30.381Z,3.08
2018-12-14T08:36:30.361Z,3.06
2018-12-14T08:37:30.358Z,3.1
2018-12-14T08:38:30.332Z,3.11
2018-12-14T08:39:30.340Z,3.18
2018-12-14T08:40:30.301Z,3.28
2018-12-14T08:41:30.282Z,3.21
2018-12-14T08:42:30.269Z,3.2
2018-12-14T08:43:30.254Z,3.18
2018-12-14T08:44:30.239Z,3.26
2018-12-14T08:45:30.225Z,3.21
2018-12-14T08:46:30.207Z,3.23
2018-12-14T08:47:30.930Z,3.21
2018-12-14T08:48:30.183Z,3.2
2018-12-14T08:49:30.238Z,3.21
2018-12-14T08:50:30.147Z,3.21
2018-12-14T08:51:30.382Z,3.26
2018-12-14T08:52:30.173Z,3.24
2018-12-14T08:53:30.101Z,3.24
2018-12-14T08:54:30.092Z,3.28
2018-12-14T08:55:30.082Z,3.33
2018-12-14T08:56:30.053Z,3.36
2018-12-14T08:57:30.038Z,3.42
2018-12-14T08:58:30.022Z,3.39
2018-12-14T08:59:30.010Z,3.5
2018-12-14T09:00:29.996Z,3.48
2018-12-14T09:01:29.979Z,3.52
2018-12-14T09:02:29.964Z,3.39
2018-12-14T09:03:29.953Z,3.4
2018-12-14T09:04:29.937Z,3.36
2018-12-14T09:05:29.920Z,3.36
2018-12-14T09:06:29.901Z,3.47
2018-12-14T09:07:29.890Z,3.48
2018-12-14T09:08:29.877Z,3.55
2018-12-14T09:09:29.857Z,3.54
2018-12-14T09:10:29.840Z,3.52
2018-12-14T09:11:29.885Z,3.51
2018-12-14T09:12:29.812Z,3.68
2018-12-14T09:13:29.800Z,3.66
2018-12-14T09:14:29.782Z,3.68
2018-12-14T09:15:29.770Z,3.62
2018-12-14T09:16:29.752Z,3.73
2018-12-14T09:17:29.737Z,3.78
2018-12-14T09:18:29.721Z,3.87
2018-12-14T09:19:29.722Z,3.83
2018-12-14T09:20:29.692Z,3.93
2018-12-14T09:21:29.679Z,3.94
2018-12-14T09:22:29.668Z,3.91
2018-12-14T09:23:29.647Z,3.94
2018-12-14T09:24:29.639Z,3.91
2018-12-14T09:25:29.620Z,4.11
2018-12-14T09:26:29.655Z,4.05
2018-12-14T09:27:29.589Z,3.93
2018-12-14T09:28:29.578Z,3.96
2018-12-14T09:29:29.565Z,3.9
2018-12-14T09:30:29.543Z,3.96
2018-12-14T09:31:29.529Z,3.96
2018-12-14T09:32:29.517Z,3.9
2018-12-14T09:33:29.498Z,3.96
2018-12-14T09:34:29.486Z,3.97
2018-12-14T09:35:29.474Z,4.04
2018-12-14T09:36:29.457Z,3.9
2018-12-14T09:37:29.442Z,4.04
2018-12-14T09:38:29.428Z,4.11
2018-12-14T09:39:29.415Z,4.09
2018-12-14T09:40:29.398Z,4.12
2018-12-14T09:41:29.383Z,4.09
2018-12-14T09:42:29.370Z,4.09
2018-12-14T09:43:29.356Z,4.2
2018-12-14T09:44:29.344Z,4.18
2018-12-14T09:45:29.326Z,4.18
2018-12-14T09:46:29.309Z,4.18
2018-12-14T09:47:29.294Z,4.2
2018-12-14T09:48:29.280Z,4.15
2018-12-14T09:49:29.275Z,4.12
2018-12-14T09:50:29.258Z,4.12
2018-12-14T09:51:29.240Z,4.09
2018-12-14T09:52:29.225Z,4.15
2018-12-14T09:53:29.205Z,4.12
2018-12-14T09:54:29.196Z,4.08
2018-12-14T09:55:29.178Z,4.02
2018-12-14T09:56:29.168Z,3.98
2018-12-14T09:57:29.161Z,3.94
2018-12-14T09:58:29.134Z,3.94
2018-12-14T09:59:29.123Z,4.02
2018-12-14T10:00:29.104Z,4.05
2018-12-14T10:01:29.095Z,4.08
2018-12-14T10:02:29.077Z,4.05
2018-12-14T10:03:29.060Z,4.06
2018-12-14T10:04:29.047Z,4.2
2018-12-14T10:05:29.034Z,4.18
2018-12-14T10:06:29.022Z,4.15
2018-12-14T10:07:29.002Z,4.23
2018-12-14T10:08:28.991Z,4.26
2018-12-14T10:09:28.975Z,4.23
2018-12-14T10:10:28.983Z,4.24
2018-12-14T10:11:28.707Z,4.26
2018-12-14T10:12:28.938Z,4.18
2018-12-14T10:13:28.922Z,4.18
2018-12-14T10:14:28.974Z,4.09
2018-12-14T10:15:28.888Z,4.14
2018-12-14T10:16:28.877Z,4.08
2018-12-14T10:17:28.861Z,4.09
2018-12-14T10:18:28.848Z,4.08
2018-12-14T10:19:28.829Z,4.08
2018-12-14T10:20:28.815Z,4.05
2018-12-14T10:21:28.800Z,3.98
2018-12-14T10:22:28.785Z,4.09
2018-12-14T10:23:28.779Z,4.08
2018-12-14T10:24:28.758Z,4.11
2018-12-14T10:25:28.737Z,4.16
2018-12-14T10:26:28.737Z,4.24
2018-12-14T10:27:28.712Z,4.32
2018-12-14T10:28:28.699Z,4.3
2018-12-14T10:29:28.688Z,4.3
2018-12-14T10:30:28.667Z,4.32
2018-12-14T10:31:28.654Z,4.37
2018-12-14T10:32:28.682Z,4.45
2018-12-14T10:33:28.627Z,4.44
2018-12-14T10:34:28.619Z,4.34
2018-12-14T10:35:28.357Z,4.42
2018-12-14T10:36:28.587Z,4.41
2018-12-14T10:37:28.569Z,4.33
2018-12-14T10:38:28.553Z,4.36
2018-12-14T10:39:28.538Z,4.36
2018-12-14T10:40:28.527Z,4.37
2018-12-14T10:41:28.510Z,4.26
2018-12-14T10:42:28.496Z,4.18
2018-12-14T10:43:28.489Z,4.06
2018-12-14T10:44:32.310Z,4.14
2018-12-14T10:45:28.453Z,4.06
2018-12-14T10:46:28.440Z,4.06
2018-12-14T10:47:28.421Z,4.05
2018-12-14T10:48:28.408Z,4.06
2018-12-14T10:49:28.394Z,3.94
2018-12-14T10:50:34.484Z,3.98
2018-12-14T10:51:28.368Z,3.84
2018-12-14T10:52:28.358Z,3.87
2018-12-14T10:53:28.344Z,3.91
2018-12-14T10:54:28.323Z,3.97
2018-12-14T10:55:28.307Z,3.94
2018-12-14T10:56:28.298Z,4
2018-12-14T10:57:28.281Z,3.96
2018-12-14T10:58:28.264Z,3.96
2018-12-14T10:59:28.250Z,4.06
2018-12-14T11:00:28.237Z,4.06
2018-12-14T11:01:28.221Z,4.11
2018-12-14T11:02:28.207Z,4.24
2018-12-14T11:03:28.192Z,4.22
2018-12-14T11:04:28.701Z,4.23
2018-12-14T11:05:28.162Z,4.23
2018-12-14T11:06:28.152Z,4.14
2018-12-14T11:07:28.131Z,4.2
2018-12-14T11:08:28.118Z,4.15
2018-12-14T11:09:28.107Z,4.14
2018-12-14T11:10:28.091Z,3.98
2018-12-14T11:11:28.075Z,3.91
2018-12-14T11:12:28.063Z,3.93
2018-12-14T11:13:28.042Z,3.88
2018-12-14T11:14:28.046Z,3.97
2018-12-14T11:15:28.016Z,3.96
2018-12-14T11:16:28.010Z,3.94
2018-12-14T11:17:27.986Z,3.84
2018-12-14T11:18:28.039Z,3.91
2018-12-14T11:19:27.958Z,3.97
2018-12-14T11:20:27.946Z,4.02
2018-12-14T11:21:27.934Z,3.87
2018-12-14T11:22:27.916Z,3.88
2018-12-14T11:23:27.910Z,3.86
2018-12-14T11:24:27.884Z,3.78
2018-12-14T11:25:27.869Z,3.78
2018-12-14T11:26:27.856Z,3.79
2018-12-14T11:27:27.839Z,3.72
2018-12-14T11:28:27.834Z,3.76
2018-12-14T11:29:27.814Z,3.83
2018-12-14T11:30:27.797Z,3.76
2018-12-14T11:31:27.783Z,3.73
2018-12-14T11:32:27.769Z,3.79
2018-12-14T11:33:27.752Z,3.75
2018-12-14T11:34:34.351Z,3.78
2018-12-14T11:35:27.722Z,3.76
2018-12-14T11:36:27.708Z,3.78
2018-12-14T11:37:27.692Z,3.79
2018-12-14T11:38:27.676Z,3.84
2018-12-14T11:39:27.668Z,3.96
2018-12-14T11:40:27.651Z,3.96
2018-12-14T11:41:27.639Z,3.94
2018-12-14T11:42:27.625Z,3.93
2018-12-14T11:43:27.617Z,3.87
2018-12-14T11:44:27.591Z,3.93
2018-12-14T11:45:27.583Z,3.84
2018-12-14T11:46:27.570Z,3.76
2018-12-14T11:47:28.182Z,3.73
2018-12-14T11:48:27.529Z,3.69
2018-12-14T11:49:27.516Z,3.75
2018-12-14T11:50:27.499Z,3.68
2018-12-14T11:51:27.486Z,3.75
2018-12-14T11:52:27.471Z,3.75
2018-12-14T11:53:27.461Z,3.72
2018-12-14T11:54:27.459Z,3.72
2018-12-14T11:55:27.427Z,3.69
2018-12-14T11:56:27.416Z,3.75
2018-12-14T11:57:27.397Z,3.72
2018-12-14T11:58:27.384Z,3.72
2018-12-14T11:59:27.369Z,3.73
2018-12-14T12:00:27.141Z,3.79
2018-12-14T12:01:27.335Z,3.83
2018-12-14T12:02:27.322Z,3.83
2018-12-14T12:03:27.309Z,3.8
2018-12-14T12:04:27.291Z,3.91
2018-12-14T12:05:27.276Z,3.96
2018-12-14T12:06:27.264Z,3.93
2018-12-14T12:07:27.251Z,4.02
2018-12-14T12:08:27.237Z,4.02
2018-12-14T12:09:27.222Z,3.94
2018-12-14T12:10:27.203Z,3.91
2018-12-14T12:11:27.191Z,3.9
2018-12-14T12:12:27.174Z,3.91
2018-12-14T12:13:27.157Z,3.91
2018-12-14T12:14:31.778Z,3.87
2018-12-14T12:15:27.129Z,3.75
2018-12-14T12:16:27.114Z,3.79
2018-12-14T12:17:27.106Z,3.78
2018-12-14T12:18:27.086Z,3.75
2018-12-14T12:19:27.079Z,3.66
2018-12-14T12:20:27.061Z,3.75
2018-12-14T12:21:27.054Z,3.78
2018-12-14T12:22:26.782Z,3.83
2018-12-14T12:23:27.009Z,3.78
2018-12-14T12:24:26.994Z,3.72
2018-12-14T12:25:26.987Z,3.75
2018-12-14T12:26:26.965Z,3.86
2018-12-14T12:27:26.949Z,3.86
2018-12-14T12:28:26.934Z,3.91
2018-12-14T12:29:26.917Z,3.91
2018-12-14T12:30:26.906Z,3.96
2018-12-14T12:31:26.888Z,3.96
2018-12-14T12:32:26.879Z,4.05
2018-12-14T12:33:26.859Z,4.14
2018-12-14T12:34:26.848Z,4.11
2018-12-14T12:35:26.835Z,4.08
2018-12-14T12:36:26.815Z,4.09
2018-12-14T12:37:26.798Z,4.05
2018-12-14T12:38:26.787Z,4.05
2018-12-14T12:39:26.781Z,4.09
2018-12-14T12:40:26.773Z,4.02
2018-12-14T12:41:26.744Z,4.04
2018-12-14T12:42:26.730Z,4
2018-12-14T12:43:26.712Z,3.98
2018-12-14T12:44:26.695Z,4.14
2018-12-14T12:45:26.689Z,4.02
2018-12-14T12:46:26.671Z,4.02
2018-12-14T12:47:26.653Z,4.02
2018-12-14T12:48:26.638Z,4.05
2018-12-14T12:49:26.622Z,4.05
2018-12-14T12:50:26.608Z,4.06
2018-12-14T12:51:26.595Z,4.06
2018-12-14T12:52:26.581Z,4.11
2018-12-14T12:53:26.566Z,4.09
2018-12-14T12:54:26.549Z,4.15
2018-12-14T12:55:26.536Z,4.15
2018-12-14T12:56:26.524Z,4.08
2018-12-14T12:57:26.506Z,4
2018-12-14T12:58:26.490Z,4
2018-12-14T12:59:26.479Z,4
2018-12-14T13:00:26.460Z,4.08
2018-12-14T13:01:26.444Z,4.11
2018-12-14T13:02:26.431Z,3.94
2018-12-14T13:03:26.423Z,4.04
2018-12-14T13:04:26.402Z,3.94
2018-12-14T13:05:26.386Z,4
2018-12-14T13:06:26.374Z,3.93
2018-12-14T13:07:26.357Z,3.78
2018-12-14T13:08:26.344Z,3.88
2018-12-14T13:09:26.332Z,3.8
2018-12-14T13:10:26.317Z,3.76
2018-12-14T13:11:26.305Z,3.79
2018-12-14T13:12:26.284Z,3.76
2018-12-14T13:13:26.268Z,3.72
2018-12-14T13:14:26.255Z,3.69
2018-12-14T13:15:26.241Z,3.73
2018-12-14T13:16:26.306Z,3.69
2018-12-14T13:17:26.250Z,3.72
2018-12-14T13:18:26.195Z,3.62
2018-12-14T13:19:26.251Z,3.51
2018-12-14T13:20:26.164Z,3.57
2018-12-14T13:21:26.205Z,3.55